sensor_id;sensor_type;location;lat;lon;timestamp;pressure;altitude;pressure_sealevel;temperature;humidity
21276;BME280;36472;52.170;20.884;2024-03-22T00:01:15;100531.47;;;10.52;95.38
21276;BME280;36472;52.170;20.884;2024-03-22T00:03:42;100535.31;;;10.46;95.86
21276;BME280;36472;52.170;20.884;2024-03-22T00:06:11;100528.28;;;10.46;96.18
21276;BME280;36472;52.170;20.884;2024-03-22T00:08:38;100526.47;;;10.47;96.28
21276;BME280;36472;52.170;20.884;2024-03-22T00:11:06;100533.34;;;10.50;96.41
21276;BME280;36472;52.170;20.884;2024-03-22T00:13:32;100535.78;;;10.53;96.88
21276;BME280;36472;52.170;20.884;2024-03-22T00:16:02;100528.75;;;10.53;96.68
21276;BME280;36472;52.170;20.884;2024-03-22T00:18:29;100523.66;;;10.50;96.89
21276;BME280;36472;52.170;20.884;2024-03-22T00:20:57;100522.75;;;10.51;97.69
21276;BME280;36472;52.170;20.884;2024-03-22T00:23:24;100524.22;;;10.55;97.49
21276;BME280;36472;52.170;20.884;2024-03-22T00:25:52;100522.47;;;10.56;97.43
21276;BME280;36472;52.170;20.884;2024-03-22T00:28:19;100515.97;;;10.47;97.83
21276;BME280;36472;52.170;20.884;2024-03-22T00:30:47;100514.69;;;10.40;98.79
21276;BME280;36472;52.170;20.884;2024-03-22T00:33:16;100513.28;;;10.34;100.00
21276;BME280;36472;52.170;20.884;2024-03-22T00:35:44;100510.44;;;10.23;100.00
21276;BME280;36472;52.170;20.884;2024-03-22T00:38:11;100513.06;;;10.23;100.00
21276;BME280;36472;52.170;20.884;2024-03-22T00:40:39;100523.09;;;10.16;100.00
21276;BME280;36472;52.170;20.884;2024-03-22T00:43:06;100515.53;;;10.11;100.00
21276;BME280;36472;52.170;20.884;2024-03-22T00:45:35;100504.09;;;9.98;100.00
21276;BME280;36472;52.170;20.884;2024-03-22T00:48:02;100518.34;;;10.08;100.00
21276;BME280;36472;52.170;20.884;2024-03-22T00:50:31;100509.53;;;10.09;100.00
21276;BME280;36472;52.170;20.884;2024-03-22T00:52:58;100512.34;;;10.06;100.00
21276;BME280;36472;52.170;20.884;2024-03-22T00:55:26;100519.56;;;10.03;100.00
21276;BME280;36472;52.170;20.884;2024-03-22T00:57:53;100503.16;;;9.99;100.00
21276;BME280;36472;52.170;20.884;2024-03-22T01:00:22;100505.00;;;9.97;100.00
21276;BME280;36472;52.170;20.884;2024-03-22T01:02:50;100505.09;;;9.96;100.00
21276;BME280;36472;52.170;20.884;2024-03-22T01:05:18;100498.09;;;9.96;100.00
21276;BME280;36472;52.170;20.884;2024-03-22T01:07:47;100508.59;;;9.96;100.00
21276;BME280;36472;52.170;20.884;2024-03-22T01:14:47;100511.50;;;9.91;100.00
21276;BME280;36472;52.170;20.884;2024-03-22T01:17:15;100507.06;;;9.92;100.00
21276;BME280;36472;52.170;20.884;2024-03-22T01:19:42;100517.56;;;9.92;100.00
21276;BME280;36472;52.170;20.884;2024-03-22T01:22:10;100510.84;;;9.88;100.00
21276;BME280;36472;52.170;20.884;2024-03-22T01:24:39;100505.50;;;9.89;100.00
21276;BME280;36472;52.170;20.884;2024-03-22T01:27:07;100502.13;;;9.87;100.00
21276;BME280;36472;52.170;20.884;2024-03-22T01:29:34;100488.31;;;9.84;100.00
21276;BME280;36472;52.170;20.884;2024-03-22T01:32:02;100489.09;;;9.86;100.00
21276;BME280;36472;52.170;20.884;2024-03-22T01:34:30;100493.38;;;9.87;100.00
21276;BME280;36472;52.170;20.884;2024-03-22T01:36:58;100496.09;;;9.85;100.00
21276;BME280;36472;52.170;20.884;2024-03-22T01:39:25;100505.66;;;9.86;100.00
21276;BME280;36472;52.170;20.884;2024-03-22T01:41:54;100502.78;;;9.91;100.00
21276;BME280;36472;52.170;20.884;2024-03-22T01:44:27;100498.84;;;9.98;100.00
21276;BME280;36472;52.170;20.884;2024-03-22T01:46:56;100499.75;;;9.97;100.00
21276;BME280;36472;52.170;20.884;2024-03-22T01:49:25;100497.13;;;9.97;100.00
21276;BME280;36472;52.170;20.884;2024-03-22T01:51:53;100496.03;;;10.01;100.00
21276;BME280;36472;52.170;20.884;2024-03-22T01:54:21;100501.84;;;10.06;100.00
21276;BME280;36472;52.170;20.884;2024-03-22T01:56:49;100501.66;;;10.09;100.00
21276;BME280;36472;52.170;20.884;2024-03-22T01:59:18;100500.69;;;10.10;100.00
21276;BME280;36472;52.170;20.884;2024-03-22T02:01:47;100499.69;;;10.13;100.00
21276;BME280;36472;52.170;20.884;2024-03-22T02:04:15;100486.47;;;10.15;100.00
21276;BME280;36472;52.170;20.884;2024-03-22T02:06:43;100486.72;;;10.24;100.00
21276;BME280;36472;52.170;20.884;2024-03-22T02:09:11;100487.84;;;10.20;100.00
21276;BME280;36472;52.170;20.884;2024-03-22T02:16:13;100477.25;;;10.22;100.00
21276;BME280;36472;52.170;20.884;2024-03-22T02:18:41;100477.25;;;10.22;100.00
21276;BME280;36472;52.170;20.884;2024-03-22T02:21:08;100482.09;;;10.28;100.00
21276;BME280;36472;52.170;20.884;2024-03-22T02:23:39;100470.94;;;10.24;100.00
21276;BME280;36472;52.170;20.884;2024-03-22T02:26:07;100471.41;;;10.31;100.00
21276;BME280;36472;52.170;20.884;2024-03-22T02:28:36;100478.94;;;10.37;100.00
21276;BME280;36472;52.170;20.884;2024-03-22T02:31:04;100478.31;;;10.34;100.00
21276;BME280;36472;52.170;20.884;2024-03-22T02:33:32;100487.84;;;10.35;100.00
21276;BME280;36472;52.170;20.884;2024-03-22T02:35:59;100470.31;;;10.35;100.00
21276;BME280;36472;52.170;20.884;2024-03-22T02:38:27;100475.81;;;10.45;100.00
21276;BME280;36472;52.170;20.884;2024-03-22T02:40:58;100470.00;;;10.40;100.00
21276;BME280;36472;52.170;20.884;2024-03-22T02:43:26;100469.63;;;10.46;100.00
21276;BME280;36472;52.170;20.884;2024-03-22T02:45:53;100465.81;;;10.37;100.00
21276;BME280;36472;52.170;20.884;2024-03-22T02:48:21;100472.09;;;10.35;100.00
21276;BME280;36472;52.170;20.884;2024-03-22T02:50:49;100475.38;;;10.38;100.00
21276;BME280;36472;52.170;20.884;2024-03-22T02:53:16;100469.56;;;10.33;100.00
21276;BME280;36472;52.170;20.884;2024-03-22T02:55:44;100475.06;;;10.43;100.00
21276;BME280;36472;52.170;20.884;2024-03-22T02:58:13;100475.19;;;10.41;100.00
21276;BME280;36472;52.170;20.884;2024-03-22T03:00:41;100475.81;;;10.45;100.00
21276;BME280;36472;52.170;20.884;2024-03-22T03:03:08;100483.69;;;10.45;100.00
21276;BME280;36472;52.170;20.884;2024-03-22T03:05:36;100476.69;;;10.45;100.00
21276;BME280;36472;52.170;20.884;2024-03-22T03:08:04;100477.06;;;10.39;100.00
21276;BME280;36472;52.170;20.884;2024-03-22T03:10:32;100473.28;;;10.43;100.00
21276;BME280;36472;52.170;20.884;2024-03-22T03:12:59;100463.75;;;10.42;100.00
21276;BME280;36472;52.170;20.884;2024-03-22T03:15:29;100473.19;;;10.45;100.00
21276;BME280;36472;52.170;20.884;2024-03-22T03:17:56;100469.38;;;10.36;100.00
21276;BME280;36472;52.170;20.884;2024-03-22T03:20:25;100454.34;;;10.24;100.00
21276;BME280;36472;52.170;20.884;2024-03-22T03:22:52;100479.28;;;10.31;100.00
21276;BME280;36472;52.170;20.884;2024-03-22T03:25:20;100476.19;;;10.24;100.00
21276;BME280;36472;52.170;20.884;2024-03-22T03:27:47;100470.66;;;10.29;100.00
21276;BME280;36472;52.170;20.884;2024-03-22T03:30:15;100482.97;;;10.28;100.00
21276;BME280;36472;52.170;20.884;2024-03-22T03:32:43;100482.00;;;10.29;100.00
21276;BME280;36472;52.170;20.884;2024-03-22T03:35:11;100479.00;;;10.21;100.00
21276;BME280;36472;52.170;20.884;2024-03-22T03:37:38;100482.78;;;10.17;100.00
21276;BME280;36472;52.170;20.884;2024-03-22T03:40:08;100480.84;;;10.06;100.00
21276;BME280;36472;52.170;20.884;2024-03-22T03:42:35;100481.88;;;9.89;100.00
21276;BME280;36472;52.170;20.884;2024-03-22T03:45:04;100484.59;;;9.88;100.00
21276;BME280;36472;52.170;20.884;2024-03-22T03:47:31;100486.38;;;9.87;100.00
21276;BME280;36472;52.170;20.884;2024-03-22T03:50:01;100486.56;;;9.84;100.00
21276;BME280;36472;52.170;20.884;2024-03-22T03:52:28;100493.13;;;9.77;100.00
21276;BME280;36472;52.170;20.884;2024-03-22T03:54:56;100496.66;;;9.76;100.00
21276;BME280;36472;52.170;20.884;2024-03-22T03:57:23;100495.78;;;9.61;100.00
21276;BME280;36472;52.170;20.884;2024-03-22T03:59:51;100504.97;;;9.54;100.00
21276;BME280;36472;52.170;20.884;2024-03-22T04:02:18;100502.53;;;9.51;100.00
21276;BME280;36472;52.170;20.884;2024-03-22T04:04:46;100508.16;;;9.45;100.00
21276;BME280;36472;52.170;20.884;2024-03-22T04:07:15;100501.28;;;9.28;100.00
21276;BME280;36472;52.170;20.884;2024-03-22T04:09:43;100508.47;;;9.24;100.00
21276;BME280;36472;52.170;20.884;2024-03-22T04:12:09;100515.19;;;9.14;100.00
21276;BME280;36472;52.170;20.884;2024-03-22T04:14:38;100515.03;;;9.01;100.00
21276;BME280;36472;52.170;20.884;2024-03-22T04:17:04;100519.50;;;8.99;100.00
21276;BME280;36472;52.170;20.884;2024-03-22T04:19:33;100522.13;;;8.99;100.00
21276;BME280;36472;52.170;20.884;2024-03-22T04:22:00;100521.47;;;8.95;100.00
21276;BME280;36472;52.170;20.884;2024-03-22T04:24:30;100521.63;;;8.92;100.00
21276;BME280;36472;52.170;20.884;2024-03-22T04:26:57;100532.88;;;8.94;100.00
21276;BME280;36472;52.170;20.884;2024-03-22T04:29:25;100528.28;;;8.98;100.00
21276;BME280;36472;52.170;20.884;2024-03-22T04:31:52;100523.13;;;8.96;100.00
21276;BME280;36472;52.170;20.884;2024-03-22T04:34:20;100523.91;;;8.98;100.00
21276;BME280;36472;52.170;20.884;2024-03-22T04:36:48;100529.16;;;8.98;100.00
21276;BME280;36472;52.170;20.884;2024-03-22T04:39:16;100526.53;;;8.98;100.00
21276;BME280;36472;52.170;20.884;2024-03-22T04:41:45;100520.09;;;9.04;100.00
21276;BME280;36472;52.170;20.884;2024-03-22T04:44:13;100522.63;;;9.06;100.00
21276;BME280;36472;52.170;20.884;2024-03-22T04:46:40;100522.88;;;9.01;100.00
21276;BME280;36472;52.170;20.884;2024-03-22T04:49:08;100505.25;;;8.89;100.00
21276;BME280;36472;52.170;20.884;2024-03-22T04:51:35;100520.25;;;9.01;100.00
21276;BME280;36472;52.170;20.884;2024-03-22T04:54:03;100534.50;;;8.97;100.00
21276;BME280;36472;52.170;20.884;2024-03-22T04:56:30;100532.19;;;8.91;100.00
21276;BME280;36472;52.170;20.884;2024-03-22T04:59:00;100539.41;;;8.87;100.00
21276;BME280;36472;52.170;20.884;2024-03-22T05:01:27;100543.47;;;8.77;100.00
21276;BME280;36472;52.170;20.884;2024-03-22T05:03:55;100539.91;;;8.78;100.00
21276;BME280;36472;52.170;20.884;2024-03-22T05:10:55;100532.47;;;8.54;100.00
21276;BME280;36472;52.170;20.884;2024-03-22T05:13:24;100547.75;;;8.62;100.00
21276;BME280;36472;52.170;20.884;2024-03-22T05:15:53;100549.53;;;8.61;100.00
21276;BME280;36472;52.170;20.884;2024-03-22T05:18:21;100545.22;;;8.60;100.00
21276;BME280;36472;52.170;20.884;2024-03-22T05:20:48;100544.13;;;8.65;100.00
21276;BME280;36472;52.170;20.884;2024-03-22T05:23:16;100537.63;;;8.72;100.00
21276;BME280;36472;52.170;20.884;2024-03-22T05:25:43;100539.81;;;8.79;100.00
21276;BME280;36472;52.170;20.884;2024-03-22T05:28:11;100542.34;;;8.81;100.00
21276;BME280;36472;52.170;20.884;2024-03-22T05:30:38;100542.78;;;8.73;100.00
21276;BME280;36472;52.170;20.884;2024-03-22T05:33:07;100533.97;;;8.74;100.00
21276;BME280;36472;52.170;20.884;2024-03-22T05:35:35;100538.06;;;8.80;100.00
21276;BME280;36472;52.170;20.884;2024-03-22T05:38:03;100517.06;;;8.64;100.00
21276;BME280;36472;52.170;20.884;2024-03-22T05:40:31;100544.28;;;8.77;100.00
21276;BME280;36472;52.170;20.884;2024-03-22T05:42:59;100546.84;;;8.79;100.00
21276;BME280;36472;52.170;20.884;2024-03-22T05:45:26;100542.34;;;8.81;100.00
21276;BME280;36472;52.170;20.884;2024-03-22T05:47:54;100543.22;;;8.82;100.00
21276;BME280;36472;52.170;20.884;2024-03-22T05:50:22;100541.75;;;8.92;100.00
21276;BME280;36472;52.170;20.884;2024-03-22T05:52:50;100547.50;;;8.98;100.00
21276;BME280;36472;52.170;20.884;2024-03-22T05:55:18;100545.56;;;9.02;100.00
21276;BME280;36472;52.170;20.884;2024-03-22T05:57:46;100549.84;;;9.03;100.00
21276;BME280;36472;52.170;20.884;2024-03-22T06:00:14;100549.09;;;9.01;100.00
21276;BME280;36472;52.170;20.884;2024-03-22T06:02:41;100551.72;;;9.01;100.00
21276;BME280;36472;52.170;20.884;2024-03-22T06:05:09;100539.66;;;8.98;100.00
21276;BME280;36472;52.170;20.884;2024-03-22T06:07:38;100543.44;;;9.09;100.00
21276;BME280;36472;52.170;20.884;2024-03-22T06:10:09;100542.41;;;9.11;100.00
21276;BME280;36472;52.170;20.884;2024-03-22T06:12:37;100538.00;;;9.12;100.00
21276;BME280;36472;52.170;20.884;2024-03-22T06:15:06;100537.16;;;9.11;100.00
21276;BME280;36472;52.170;20.884;2024-03-22T06:17:34;100540.53;;;9.13;100.00
21276;BME280;36472;52.170;20.884;2024-03-22T06:24:13;100543.81;;;9.17;100.00
21276;BME280;36472;52.170;20.884;2024-03-22T06:26:41;100546.72;;;9.12;100.00
21276;BME280;36472;52.170;20.884;2024-03-22T06:29:08;100543.44;;;9.09;100.00
21276;BME280;36472;52.170;20.884;2024-03-22T06:31:36;100549.94;;;9.02;100.00
21276;BME280;36472;52.170;20.884;2024-03-22T06:34:03;100531.94;;;8.95;100.00
21276;BME280;36472;52.170;20.884;2024-03-22T06:36:32;100538.38;;;9.06;100.00
21276;BME280;36472;52.170;20.884;2024-03-22T06:38:59;100542.50;;;9.10;100.00
21276;BME280;36472;52.170;20.884;2024-03-22T06:46:03;100545.03;;;9.11;100.00
21276;BME280;36472;52.170;20.884;2024-03-22T06:48:31;100545.66;;;9.01;100.00
21276;BME280;36472;52.170;20.884;2024-03-22T06:50:58;100553.06;;;9.08;100.00
21276;BME280;36472;52.170;20.884;2024-03-22T06:53:26;100554.59;;;9.12;100.00
21276;BME280;36472;52.170;20.884;2024-03-22T06:55:54;100563.22;;;9.14;100.00
21276;BME280;36472;52.170;20.884;2024-03-22T06:58:22;100551.19;;;9.10;100.00
21276;BME280;36472;52.170;20.884;2024-03-22T07:00:49;100547.31;;;9.02;100.00
21276;BME280;36472;52.170;20.884;2024-03-22T07:03:18;100548.56;;;9.10;100.00
21276;BME280;36472;52.170;20.884;2024-03-22T07:05:47;100546.81;;;9.11;100.00
21276;BME280;36472;52.170;20.884;2024-03-22T07:08:14;100553.56;;;9.15;100.00
21276;BME280;36472;52.170;20.884;2024-03-22T07:10:42;100550.53;;;9.07;100.00
21276;BME280;36472;52.170;20.884;2024-03-22T07:13:09;100546.81;;;9.11;100.00
21276;BME280;36472;52.170;20.884;2024-03-22T07:15:37;100551.44;;;9.22;100.00
21276;BME280;36472;52.170;20.884;2024-03-22T07:18:04;100551.28;;;9.25;100.00
21276;BME280;36472;52.170;20.884;2024-03-22T07:20:34;100532.75;;;9.12;100.00
21276;BME280;36472;52.170;20.884;2024-03-22T07:23:01;100556.00;;;9.18;100.00
21276;BME280;36472;52.170;20.884;2024-03-22T07:25:31;100549.84;;;9.19;100.00
21276;BME280;36472;52.170;20.884;2024-03-22T07:27:58;100546.09;;;9.23;100.00
21276;BME280;36472;52.170;20.884;2024-03-22T07:30:26;100561.31;;;9.32;100.00
21276;BME280;36472;52.170;20.884;2024-03-22T07:32:53;100552.34;;;9.36;100.00
21276;BME280;36472;52.170;20.884;2024-03-22T07:35:21;100536.22;;;9.43;100.00
21276;BME280;36472;52.170;20.884;2024-03-22T07:37:49;100538.25;;;9.53;100.00
21276;BME280;36472;52.170;20.884;2024-03-22T07:40:17;100544.16;;;9.57;100.00
21276;BME280;36472;52.170;20.884;2024-03-22T07:42:44;100551.78;;;9.62;100.00
21276;BME280;36472;52.170;20.884;2024-03-22T07:45:12;100546.88;;;9.55;99.38
21276;BME280;36472;52.170;20.884;2024-03-22T07:47:39;100552.94;;;9.56;99.37
21276;BME280;36472;52.170;20.884;2024-03-22T07:50:09;100550.31;;;9.56;99.11
21276;BME280;36472;52.170;20.884;2024-03-22T07:52:37;100549.03;;;9.63;99.68
21276;BME280;36472;52.170;20.884;2024-03-22T07:55:07;100541.94;;;9.65;99.96
21276;BME280;36472;52.170;20.884;2024-03-22T07:57:34;100546.06;;;9.69;100.00
21276;BME280;36472;52.170;20.884;2024-03-22T08:04:35;100534.63;;;9.70;99.76
21276;BME280;36472;52.170;20.884;2024-03-22T08:07:03;100532.09;;;9.69;99.17
21276;BME280;36472;52.170;20.884;2024-03-22T08:09:30;100535.28;;;9.74;99.36
21276;BME280;36472;52.170;20.884;2024-03-22T08:12:00;100532.19;;;9.82;99.40
21276;BME280;36472;52.170;20.884;2024-03-22T08:14:27;100526.00;;;9.83;98.58
21276;BME280;36472;52.170;20.884;2024-03-22T08:16:54;100539.13;;;9.83;97.94
21276;BME280;36472;52.170;20.884;2024-03-22T08:19:22;100525.94;;;9.84;98.02
21276;BME280;36472;52.170;20.884;2024-03-22T08:21:50;100526.66;;;9.86;98.61
21276;BME280;36472;52.170;20.884;2024-03-22T08:24:18;100523.13;;;9.87;97.95
21276;BME280;36472;52.170;20.884;2024-03-22T08:26:46;100527.72;;;9.98;98.33
21276;BME280;36472;52.170;20.884;2024-03-22T08:29:15;100524.59;;;10.06;98.60
21276;BME280;36472;52.170;20.884;2024-03-22T08:31:43;100528.00;;;10.08;97.80
21276;BME280;36472;52.170;20.884;2024-03-22T08:34:10;100525.47;;;10.06;97.61
21276;BME280;36472;52.170;20.884;2024-03-22T08:36:39;100515.97;;;10.04;97.74
21276;BME280;36472;52.170;20.884;2024-03-22T08:39:06;100528.75;;;10.10;96.92
21276;BME280;36472;52.170;20.884;2024-03-22T08:41:37;100531.47;;;10.08;97.50
21276;BME280;36472;52.170;20.884;2024-03-22T08:44:04;100527.06;;;10.09;96.91
21276;BME280;36472;52.170;20.884;2024-03-22T08:46:35;100535.03;;;10.07;97.00
21276;BME280;36472;52.170;20.884;2024-03-22T08:49:02;100514.88;;;10.08;97.43
21276;BME280;36472;52.170;20.884;2024-03-22T08:51:30;100520.22;;;10.06;97.44
21276;BME280;36472;52.170;20.884;2024-03-22T08:58:31;100516.47;;;10.10;97.78
21276;BME280;36472;52.170;20.884;2024-03-22T09:00:58;100513.91;;;10.09;96.17
21276;BME280;36472;52.170;20.884;2024-03-22T09:03:27;100522.44;;;10.13;96.78
21276;BME280;36472;52.170;20.884;2024-03-22T09:05:57;100514.38;;;10.16;96.83
21276;BME280;36472;52.170;20.884;2024-03-22T09:08:24;100510.84;;;10.17;96.87
21276;BME280;36472;52.170;20.884;2024-03-22T09:10:52;100514.38;;;10.16;96.80
21276;BME280;36472;52.170;20.884;2024-03-22T09:13:20;100516.84;;;10.19;96.49
21276;BME280;36472;52.170;20.884;2024-03-22T09:15:47;100515.69;;;10.23;96.44
21276;BME280;36472;52.170;20.884;2024-03-22T09:18:15;100514.84;;;10.22;95.99
21276;BME280;36472;52.170;20.884;2024-03-22T09:20:44;100510.25;;;10.26;95.73
21276;BME280;36472;52.170;20.884;2024-03-22T09:23:11;100516.66;;;10.22;95.88
21276;BME280;36472;52.170;20.884;2024-03-22T09:25:39;100514.03;;;10.22;96.39
21276;BME280;36472;52.170;20.884;2024-03-22T09:28:06;100515.69;;;10.23;95.60
21276;BME280;36472;52.170;20.884;2024-03-22T09:35:07;100493.00;;;10.22;96.94
21276;BME280;36472;52.170;20.884;2024-03-22T09:37:37;100504.06;;;10.13;95.52
21276;BME280;36472;52.170;20.884;2024-03-22T09:40:05;100501.25;;;10.16;95.67
21276;BME280;36472;52.170;20.884;2024-03-22T09:42:38;100501.06;;;10.19;96.01
21276;BME280;36472;52.170;20.884;2024-03-22T09:45:09;100497.81;;;10.15;96.17
21276;BME280;36472;52.170;20.884;2024-03-22T09:52:12;100490.56;;;10.19;97.37
21276;BME280;36472;52.170;20.884;2024-03-22T09:54:43;100487.94;;;10.19;97.57
21276;BME280;36472;52.170;20.884;2024-03-22T09:57:14;100487.00;;;10.20;97.73
21276;BME280;36472;52.170;20.884;2024-03-22T10:04:15;100474.72;;;10.35;97.98
21276;BME280;36472;52.170;20.884;2024-03-22T10:06:42;100466.00;;;10.34;97.33
21276;BME280;36472;52.170;20.884;2024-03-22T10:09:12;100472.75;;;10.38;96.82
21276;BME280;36472;52.170;20.884;2024-03-22T10:11:41;100472.19;;;10.33;96.66
21276;BME280;36472;52.170;20.884;2024-03-22T10:14:09;100469.66;;;10.32;96.40
21276;BME280;36472;52.170;20.884;2024-03-22T10:16:38;100472.28;;;10.32;96.92
21276;BME280;36472;52.170;20.884;2024-03-22T10:19:06;100468.53;;;10.36;96.86
21276;BME280;36472;52.170;20.884;2024-03-22T10:21:33;100470.00;;;10.40;96.34
21276;BME280;36472;52.170;20.884;2024-03-22T10:24:01;100466.38;;;10.42;96.09
21276;BME280;36472;52.170;20.884;2024-03-22T10:26:28;100457.63;;;10.42;96.37
21276;BME280;36472;52.170;20.884;2024-03-22T10:28:57;100458.84;;;10.36;95.92
21276;BME280;36472;52.170;20.884;2024-03-22T10:31:26;100462.44;;;10.35;95.90
21276;BME280;36472;52.170;20.884;2024-03-22T10:33:55;100461.09;;;10.28;96.24
21276;BME280;36472;52.170;20.884;2024-03-22T10:36:26;100455.88;;;10.14;96.97
21276;BME280;36472;52.170;20.884;2024-03-22T10:38:55;100458.78;;;10.09;97.66
21276;BME280;36472;52.170;20.884;2024-03-22T10:41:24;100452.50;;;10.11;98.64
21276;BME280;36472;52.170;20.884;2024-03-22T10:43:51;100452.66;;;10.23;99.14
21276;BME280;36472;52.170;20.884;2024-03-22T10:46:24;100446.69;;;10.35;98.67
21276;BME280;36472;52.170;20.884;2024-03-22T10:48:56;100446.91;;;10.45;98.49
21276;BME280;36472;52.170;20.884;2024-03-22T10:51:26;100440.78;;;10.59;97.65
21276;BME280;36472;52.170;20.884;2024-03-22T10:53:55;100442.63;;;10.71;97.40
21276;BME280;36472;52.170;20.884;2024-03-22T10:56:25;100429.25;;;10.74;95.89
21276;BME280;36472;52.170;20.884;2024-03-22T10:58:53;100436.03;;;10.78;96.47
21276;BME280;36472;52.170;20.884;2024-03-22T11:01:26;100434.22;;;10.79;96.40
21276;BME280;36472;52.170;20.884;2024-03-22T11:04:03;100436.72;;;10.68;94.97
21276;BME280;36472;52.170;20.884;2024-03-22T11:06:32;100426.31;;;10.66;94.79
21276;BME280;36472;52.170;20.884;2024-03-22T11:09:00;100429.69;;;10.68;94.60
21276;BME280;36472;52.170;20.884;2024-03-22T11:11:29;100415.81;;;10.66;93.97
21276;BME280;36472;52.170;20.884;2024-03-22T11:18:30;100418.47;;;10.52;93.59
21276;BME280;36472;52.170;20.884;2024-03-22T11:25:31;100412.81;;;10.58;94.20
21276;BME280;36472;52.170;20.884;2024-03-22T11:28:00;100400.63;;;10.57;93.43
21276;BME280;36472;52.170;20.884;2024-03-22T11:30:28;100407.91;;;10.66;93.58
21276;BME280;36472;52.170;20.884;2024-03-22T11:32:56;100397.25;;;10.55;92.67
21276;BME280;36472;52.170;20.884;2024-03-22T11:39:58;100389.34;;;10.82;91.67
21276;BME280;36472;52.170;20.884;2024-03-22T11:42:28;100388.63;;;10.93;91.71
21276;BME280;36472;52.170;20.884;2024-03-22T11:44:55;100386.19;;;10.90;90.68
21276;BME280;36472;52.170;20.884;2024-03-22T11:47:23;100387.59;;;10.95;90.30
21276;BME280;36472;52.170;20.884;2024-03-22T11:49:51;100394.09;;;11.02;89.64
21276;BME280;36472;52.170;20.884;2024-03-22T11:52:24;100390.94;;;11.10;89.81
21276;BME280;36472;52.170;20.884;2024-03-22T11:54:52;100378.13;;;11.06;88.96
21276;BME280;36472;52.170;20.884;2024-03-22T11:57:22;100378.97;;;11.06;87.71
21276;BME280;36472;52.170;20.884;2024-03-22T11:59:51;100379.28;;;11.14;88.86
21276;BME280;36472;52.170;20.884;2024-03-22T12:02:19;100367.94;;;11.14;87.88
21276;BME280;36472;52.170;20.884;2024-03-22T12:04:47;100385.06;;;11.19;87.96
21276;BME280;36472;52.170;20.884;2024-03-22T12:07:17;100376.03;;;11.23;88.55
21276;BME280;36472;52.170;20.884;2024-03-22T12:09:45;100369.19;;;11.21;86.97
21276;BME280;36472;52.170;20.884;2024-03-22T12:12:13;100384.69;;;11.26;86.20
21276;BME280;36472;52.170;20.884;2024-03-22T12:14:42;100384.13;;;11.33;87.42
21276;BME280;36472;52.170;20.884;2024-03-22T12:17:09;100393.28;;;11.28;85.75
21276;BME280;36472;52.170;20.884;2024-03-22T12:19:37;100380.75;;;11.18;82.79
21276;BME280;36472;52.170;20.884;2024-03-22T12:22:05;100383.47;;;11.17;82.67
21276;BME280;36472;52.170;20.884;2024-03-22T12:24:33;100375.16;;;11.10;82.80
21276;BME280;36472;52.170;20.884;2024-03-22T12:27:01;100365.72;;;11.08;82.97
21276;BME280;36472;52.170;20.884;2024-03-22T12:29:28;100372.66;;;11.09;82.63
21276;BME280;36472;52.170;20.884;2024-03-22T12:31:58;100364.66;;;11.10;82.56
21276;BME280;36472;52.170;20.884;2024-03-22T12:34:27;100363.19;;;11.19;83.73
21276;BME280;36472;52.170;20.884;2024-03-22T12:36:56;100348.69;;;11.26;83.72
21276;BME280;36472;52.170;20.884;2024-03-22T12:43:56;100341.09;;;11.34;81.50
21276;BME280;36472;52.170;20.884;2024-03-22T12:46:24;100337.91;;;11.42;81.31
21276;BME280;36472;52.170;20.884;2024-03-22T12:48:53;100331.16;;;11.51;81.93
21276;BME280;36472;52.170;20.884;2024-03-22T12:51:21;100330.34;;;11.50;81.24
21276;BME280;36472;52.170;20.884;2024-03-22T12:53:48;100325.59;;;11.55;81.86
21276;BME280;36472;52.170;20.884;2024-03-22T12:56:16;100323.16;;;11.65;82.38
21276;BME280;36472;52.170;20.884;2024-03-22T12:58:43;100309.03;;;11.66;82.76
21276;BME280;36472;52.170;20.884;2024-03-22T13:01:11;100319.34;;;11.69;82.36
21276;BME280;36472;52.170;20.884;2024-03-22T13:03:38;100318.50;;;11.69;81.44
21276;BME280;36472;52.170;20.884;2024-03-22T13:06:08;100312.63;;;11.65;81.14
21276;BME280;36472;52.170;20.884;2024-03-22T13:08:35;100314.13;;;11.56;82.26
21276;BME280;36472;52.170;20.884;2024-03-22T13:11:03;100313.03;;;11.72;82.40
21276;BME280;36472;52.170;20.884;2024-03-22T13:13:30;100312.78;;;11.75;81.80
21276;BME280;36472;52.170;20.884;2024-03-22T13:15:58;100316.59;;;11.84;81.35
21276;BME280;36472;52.170;20.884;2024-03-22T13:18:27;100305.69;;;11.88;82.14
21276;BME280;36472;52.170;20.884;2024-03-22T13:20:55;100307.94;;;11.94;81.70
21276;BME280;36472;52.170;20.884;2024-03-22T13:23:23;100303.28;;;11.98;80.83
21276;BME280;36472;52.170;20.884;2024-03-22T13:25:51;100290.63;;;11.90;80.81
21276;BME280;36472;52.170;20.884;2024-03-22T13:28:18;100296.72;;;12.04;81.86
21276;BME280;36472;52.170;20.884;2024-03-22T13:30:49;100288.91;;;12.02;79.88
21276;BME280;36472;52.170;20.884;2024-03-22T13:33:16;100283.00;;;12.11;81.32
21276;BME280;36472;52.170;20.884;2024-03-22T13:35:45;100287.06;;;12.15;80.71
21276;BME280;36472;52.170;20.884;2024-03-22T13:38:12;100283.72;;;12.13;79.75
21276;BME280;36472;52.170;20.884;2024-03-22T13:45:17;100268.41;;;12.19;81.12
21276;BME280;36472;52.170;20.884;2024-03-22T13:47:45;100270.25;;;12.29;81.71
21276;BME280;36472;52.170;20.884;2024-03-22T13:50:13;100263.69;;;12.35;79.83